sensor_id;sensor_type;location;lat;lon;timestamp;P1;durP1;ratioP1;P2;durP2;ratioP2
68214;SDS011;55036;52.138;5.236;2023-05-07T00:01:22;22.27;;;16.77;;
68214;SDS011;55036;52.138;5.236;2023-05-07T00:03:49;20.60;;;16.98;;
68214;SDS011;55036;52.138;5.236;2023-05-07T00:06:16;19.85;;;15.32;;
68214;SDS011;55036;52.138;5.236;2023-05-07T00:08:43;17.00;;;14.35;;
68214;SDS011;55036;52.138;5.236;2023-05-07T00:11:09;18.23;;;14.60;;
68214;SDS011;55036;52.138;5.236;2023-05-07T00:13:36;17.52;;;14.73;;
68214;SDS011;55036;52.138;5.236;2023-05-07T00:49:08;17.27;;;12.98;;
68214;SDS011;55036;52.138;5.236;2023-05-07T00:51:35;14.70;;;11.20;;
68214;SDS011;55036;52.138;5.236;2023-05-07T00:54:02;14.52;;;11.57;;
68214;SDS011;55036;52.138;5.236;2023-05-07T00:56:29;13.85;;;11.48;;
68214;SDS011;55036;52.138;5.236;2023-05-07T00:58:57;16.17;;;12.13;;
68214;SDS011;55036;52.138;5.236;2023-05-07T01:01:24;12.85;;;10.85;;
68214;SDS011;55036;52.138;5.236;2023-05-07T01:03:51;14.57;;;11.88;;
68214;SDS011;55036;52.138;5.236;2023-05-07T01:06:20;13.05;;;11.65;;
68214;SDS011;55036;52.138;5.236;2023-05-07T01:08:48;13.45;;;10.60;;
68214;SDS011;55036;52.138;5.236;2023-05-07T01:11:16;16.30;;;11.77;;
68214;SDS011;55036;52.138;5.236;2023-05-07T01:13:46;16.45;;;11.25;;
68214;SDS011;55036;52.138;5.236;2023-05-07T01:16:13;13.15;;;10.27;;
68214;SDS011;55036;52.138;5.236;2023-05-07T01:18:40;15.00;;;10.82;;
68214;SDS011;55036;52.138;5.236;2023-05-07T01:21:07;16.17;;;10.88;;
68214;SDS011;55036;52.138;5.236;2023-05-07T01:23:37;11.70;;;10.50;;
68214;SDS011;55036;52.138;5.236;2023-05-07T01:26:06;14.88;;;11.65;;
68214;SDS011;55036;52.138;5.236;2023-05-07T01:28:32;14.23;;;11.00;;
68214;SDS011;55036;52.138;5.236;2023-05-07T01:31:02;12.63;;;11.20;;
68214;SDS011;55036;52.138;5.236;2023-05-07T01:33:31;14.23;;;11.43;;
68214;SDS011;55036;52.138;5.236;2023-05-07T01:36:00;13.45;;;11.18;;
68214;SDS011;55036;52.138;5.236;2023-05-07T01:38:32;12.82;;;11.55;;
68214;SDS011;55036;52.138;5.236;2023-05-07T01:40:59;12.75;;;11.48;;
68214;SDS011;55036;52.138;5.236;2023-05-07T01:43:26;13.57;;;11.10;;
68214;SDS011;55036;52.138;5.236;2023-05-07T01:45:52;14.48;;;11.50;;
68214;SDS011;55036;52.138;5.236;2023-05-07T01:48:20;12.45;;;10.68;;
68214;SDS011;55036;52.138;5.236;2023-05-07T01:50:47;13.48;;;11.18;;
68214;SDS011;55036;52.138;5.236;2023-05-07T01:53:14;14.93;;;11.07;;
68214;SDS011;55036;52.138;5.236;2023-05-07T01:55:41;13.95;;;11.88;;
68214;SDS011;55036;52.138;5.236;2023-05-07T01:58:08;14.45;;;12.80;;
68214;SDS011;55036;52.138;5.236;2023-05-07T02:00:34;12.68;;;11.25;;
68214;SDS011;55036;52.138;5.236;2023-05-07T02:03:01;12.93;;;11.30;;
68214;SDS011;55036;52.138;5.236;2023-05-07T02:05:28;17.60;;;13.43;;
68214;SDS011;55036;52.138;5.236;2023-05-07T02:07:54;14.75;;;12.18;;
68214;SDS011;55036;52.138;5.236;2023-05-07T02:10:21;15.55;;;12.07;;
68214;SDS011;55036;52.138;5.236;2023-05-07T02:12:48;17.35;;;12.00;;
68214;SDS011;55036;52.138;5.236;2023-05-07T02:15:15;16.35;;;12.10;;
68214;SDS011;55036;52.138;5.236;2023-05-07T02:17:57;15.13;;;12.05;;
68214;SDS011;55036;52.138;5.236;2023-05-07T02:20:26;14.52;;;12.23;;
68214;SDS011;55036;52.138;5.236;2023-05-07T02:22:53;14.23;;;12.10;;
68214;SDS011;55036;52.138;5.236;2023-05-07T02:25:19;15.95;;;11.35;;
68214;SDS011;55036;52.138;5.236;2023-05-07T02:27:46;15.95;;;11.65;;
68214;SDS011;55036;52.138;5.236;2023-05-07T02:30:13;14.40;;;11.85;;
68214;SDS011;55036;52.138;5.236;2023-05-07T02:32:40;13.70;;;12.27;;
68214;SDS011;55036;52.138;5.236;2023-05-07T02:35:07;12.40;;;11.18;;
68214;SDS011;55036;52.138;5.236;2023-05-07T02:37:34;15.45;;;11.40;;
68214;SDS011;55036;52.138;5.236;2023-05-07T02:40:01;15.45;;;12.70;;
68214;SDS011;55036;52.138;5.236;2023-05-07T02:42:29;15.70;;;12.18;;
68214;SDS011;55036;52.138;5.236;2023-05-07T02:44:56;13.82;;;12.43;;
68214;SDS011;55036;52.138;5.236;2023-05-07T02:47:22;13.05;;;11.75;;
68214;SDS011;55036;52.138;5.236;2023-05-07T02:49:49;15.30;;;12.18;;
68214;SDS011;55036;52.138;5.236;2023-05-07T02:52:16;14.63;;;12.13;;
68214;SDS011;55036;52.138;5.236;2023-05-07T02:54:42;14.85;;;12.27;;
68214;SDS011;55036;52.138;5.236;2023-05-07T02:57:09;16.65;;;12.70;;
68214;SDS011;55036;52.138;5.236;2023-05-07T02:59:36;13.88;;;12.43;;
68214;SDS011;55036;52.138;5.236;2023-05-07T03:02:02;14.70;;;13.02;;
68214;SDS011;55036;52.138;5.236;2023-05-07T03:04:29;14.60;;;13.10;;
68214;SDS011;55036;52.138;5.236;2023-05-07T03:06:56;15.25;;;12.82;;
68214;SDS011;55036;52.138;5.236;2023-05-07T03:09:23;19.08;;;14.90;;
68214;SDS011;55036;52.138;5.236;2023-05-07T03:11:49;14.43;;;13.02;;
68214;SDS011;55036;52.138;5.236;2023-05-07T03:14:16;14.35;;;12.48;;
68214;SDS011;55036;52.138;5.236;2023-05-07T03:16:43;17.55;;;14.02;;
68214;SDS011;55036;52.138;5.236;2023-05-07T03:19:09;17.05;;;13.65;;
68214;SDS011;55036;52.138;5.236;2023-05-07T03:21:36;19.88;;;14.63;;
68214;SDS011;55036;52.138;5.236;2023-05-07T03:24:03;16.77;;;14.60;;
68214;SDS011;55036;52.138;5.236;2023-05-07T03:26:30;18.33;;;15.30;;
68214;SDS011;55036;52.138;5.236;2023-05-07T03:28:56;18.48;;;15.00;;
68214;SDS011;55036;52.138;5.236;2023-05-07T03:31:23;17.85;;;15.90;;
68214;SDS011;55036;52.138;5.236;2023-05-07T03:33:50;15.82;;;14.25;;
68214;SDS011;55036;52.138;5.236;2023-05-07T03:36:18;16.85;;;14.75;;
68214;SDS011;55036;52.138;5.236;2023-05-07T03:38:45;17.73;;;14.70;;
68214;SDS011;55036;52.138;5.236;2023-05-07T03:41:12;16.27;;;14.68;;
68214;SDS011;55036;52.138;5.236;2023-05-07T03:43:39;15.07;;;13.32;;
68214;SDS011;55036;52.138;5.236;2023-05-07T03:46:06;17.13;;;14.30;;
68214;SDS011;55036;52.138;5.236;2023-05-07T03:48:33;15.02;;;13.43;;
68214;SDS011;55036;52.138;5.236;2023-05-07T03:50:59;16.38;;;13.45;;
68214;SDS011;55036;52.138;5.236;2023-05-07T03:53:26;16.92;;;12.70;;
68214;SDS011;55036;52.138;5.236;2023-05-07T03:55:52;15.70;;;14.05;;
68214;SDS011;55036;52.138;5.236;2023-05-07T03:58:19;16.83;;;15.02;;
68214;SDS011;55036;52.138;5.236;2023-05-07T04:00:46;19.35;;;15.10;;
68214;SDS011;55036;52.138;5.236;2023-05-07T04:03:12;19.50;;;16.98;;
68214;SDS011;55036;52.138;5.236;2023-05-07T04:05:40;21.85;;;16.75;;
68214;SDS011;55036;52.138;5.236;2023-05-07T04:08:07;21.08;;;15.75;;
68214;SDS011;55036;52.138;5.236;2023-05-07T04:10:33;21.30;;;16.70;;
68214;SDS011;55036;52.138;5.236;2023-05-07T04:13:00;18.75;;;16.85;;
68214;SDS011;55036;52.138;5.236;2023-05-07T04:15:27;20.67;;;17.73;;
68214;SDS011;55036;52.138;5.236;2023-05-07T04:17:53;21.95;;;17.65;;
68214;SDS011;55036;52.138;5.236;2023-05-07T04:20:20;21.35;;;17.42;;
68214;SDS011;55036;52.138;5.236;2023-05-07T04:22:47;21.55;;;16.98;;
68214;SDS011;55036;52.138;5.236;2023-05-07T04:25:13;18.48;;;16.67;;
68214;SDS011;55036;52.138;5.236;2023-05-07T04:27:42;23.92;;;17.05;;
68214;SDS011;55036;52.138;5.236;2023-05-07T04:30:09;20.38;;;16.65;;
68214;SDS011;55036;52.138;5.236;2023-05-07T04:32:36;22.35;;;18.40;;
68214;SDS011;55036;52.138;5.236;2023-05-07T04:35:03;20.60;;;17.75;;
68214;SDS011;55036;52.138;5.236;2023-05-07T04:37:31;19.60;;;17.42;;
68214;SDS011;55036;52.138;5.236;2023-05-07T04:39:58;20.67;;;18.48;;
68214;SDS011;55036;52.138;5.236;2023-05-07T04:42:26;21.58;;;17.95;;
68214;SDS011;55036;52.138;5.236;2023-05-07T04:44:53;22.92;;;18.70;;
68214;SDS011;55036;52.138;5.236;2023-05-07T04:47:20;22.75;;;18.23;;
68214;SDS011;55036;52.138;5.236;2023-05-07T04:49:46;23.63;;;17.00;;
68214;SDS011;55036;52.138;5.236;2023-05-07T04:52:13;20.60;;;18.27;;
68214;SDS011;55036;52.138;5.236;2023-05-07T04:54:40;24.90;;;17.88;;
68214;SDS011;55036;52.138;5.236;2023-05-07T04:57:06;23.35;;;18.10;;
68214;SDS011;55036;52.138;5.236;2023-05-07T04:59:33;25.35;;;18.88;;
68214;SDS011;55036;52.138;5.236;2023-05-07T05:02:00;22.15;;;19.77;;
68214;SDS011;55036;52.138;5.236;2023-05-07T05:04:27;21.10;;;18.70;;
68214;SDS011;55036;52.138;5.236;2023-05-07T05:06:54;22.77;;;18.42;;
68214;SDS011;55036;52.138;5.236;2023-05-07T05:09:20;22.75;;;18.98;;
68214;SDS011;55036;52.138;5.236;2023-05-07T05:11:47;19.05;;;16.77;;
68214;SDS011;55036;52.138;5.236;2023-05-07T05:14:14;21.50;;;18.58;;
68214;SDS011;55036;52.138;5.236;2023-05-07T05:16:40;22.25;;;18.40;;
68214;SDS011;55036;52.138;5.236;2023-05-07T05:19:07;23.48;;;18.80;;
68214;SDS011;55036;52.138;5.236;2023-05-07T05:21:34;20.83;;;17.65;;
68214;SDS011;55036;52.138;5.236;2023-05-07T05:24:00;21.60;;;18.65;;
68214;SDS011;55036;52.138;5.236;2023-05-07T05:26:27;20.20;;;17.38;;
68214;SDS011;55036;52.138;5.236;2023-05-07T05:28:54;21.90;;;18.60;;
68214;SDS011;55036;52.138;5.236;2023-05-07T05:31:20;18.75;;;16.85;;
68214;SDS011;55036;52.138;5.236;2023-05-07T05:33:47;19.33;;;16.05;;
68214;SDS011;55036;52.138;5.236;2023-05-07T05:36:14;21.48;;;16.83;;
68214;SDS011;55036;52.138;5.236;2023-05-07T05:38:41;19.13;;;16.63;;
68214;SDS011;55036;52.138;5.236;2023-05-07T05:41:07;21.55;;;16.60;;
68214;SDS011;55036;52.138;5.236;2023-05-07T05:43:34;19.65;;;16.20;;
68214;SDS011;55036;52.138;5.236;2023-05-07T05:46:00;17.75;;;15.88;;
68214;SDS011;55036;52.138;5.236;2023-05-07T05:48:28;20.88;;;16.67;;
68214;SDS011;55036;52.138;5.236;2023-05-07T05:50:56;20.35;;;15.27;;
68214;SDS011;55036;52.138;5.236;2023-05-07T05:53:22;21.92;;;16.88;;
68214;SDS011;55036;52.138;5.236;2023-05-07T05:55:49;22.02;;;15.90;;
68214;SDS011;55036;52.138;5.236;2023-05-07T05:58:16;20.17;;;15.60;;
68214;SDS011;55036;52.138;5.236;2023-05-07T06:00:43;16.00;;;14.15;;
68214;SDS011;55036;52.138;5.236;2023-05-07T06:03:11;21.95;;;17.75;;
68214;SDS011;55036;52.138;5.236;2023-05-07T06:05:39;21.60;;;16.25;;
68214;SDS011;55036;52.138;5.236;2023-05-07T06:08:06;20.83;;;16.58;;
68214;SDS011;55036;52.138;5.236;2023-05-07T06:10:32;22.65;;;16.65;;
68214;SDS011;55036;52.138;5.236;2023-05-07T06:12:59;26.02;;;17.10;;
68214;SDS011;55036;52.138;5.236;2023-05-07T06:15:26;19.92;;;16.50;;
68214;SDS011;55036;52.138;5.236;2023-05-07T06:17:53;24.73;;;16.65;;
68214;SDS011;55036;52.138;5.236;2023-05-07T06:20:22;20.60;;;16.05;;
68214;SDS011;55036;52.138;5.236;2023-05-07T06:22:49;20.75;;;16.17;;
68214;SDS011;55036;52.138;5.236;2023-05-07T06:25:15;18.95;;;16.30;;
68214;SDS011;55036;52.138;5.236;2023-05-07T06:27:42;18.52;;;16.25;;
68214;SDS011;55036;52.138;5.236;2023-05-07T06:30:09;21.52;;;15.98;;
68214;SDS011;55036;52.138;5.236;2023-05-07T06:32:36;22.02;;;17.05;;
68214;SDS011;55036;52.138;5.236;2023-05-07T06:35:03;23.45;;;17.95;;
68214;SDS011;55036;52.138;5.236;2023-05-07T06:37:30;20.23;;;16.40;;
68214;SDS011;55036;52.138;5.236;2023-05-07T06:39:57;22.15;;;18.17;;
68214;SDS011;55036;52.138;5.236;2023-05-07T06:42:25;23.25;;;18.38;;
68214;SDS011;55036;52.138;5.236;2023-05-07T06:44:52;22.08;;;17.83;;
68214;SDS011;55036;52.138;5.236;2023-05-07T06:47:19;21.23;;;16.70;;
68214;SDS011;55036;52.138;5.236;2023-05-07T06:49:46;21.17;;;18.05;;
68214;SDS011;55036;52.138;5.236;2023-05-07T06:52:12;24.05;;;17.83;;
68214;SDS011;55036;52.138;5.236;2023-05-07T06:54:39;22.08;;;18.42;;
68214;SDS011;55036;52.138;5.236;2023-05-07T06:57:06;22.63;;;18.23;;
68214;SDS011;55036;52.138;5.236;2023-05-07T06:59:33;21.75;;;17.75;;
68214;SDS011;55036;52.138;5.236;2023-05-07T07:01:59;21.35;;;18.48;;
68214;SDS011;55036;52.138;5.236;2023-05-07T07:04:26;22.98;;;18.00;;
68214;SDS011;55036;52.138;5.236;2023-05-07T07:06:54;21.35;;;18.80;;
68214;SDS011;55036;52.138;5.236;2023-05-07T07:09:22;18.02;;;15.95;;
68214;SDS011;55036;52.138;5.236;2023-05-07T07:11:49;20.88;;;18.10;;
68214;SDS011;55036;52.138;5.236;2023-05-07T07:14:16;25.15;;;17.65;;
68214;SDS011;55036;52.138;5.236;2023-05-07T07:16:42;19.42;;;17.10;;
68214;SDS011;55036;52.138;5.236;2023-05-07T07:19:09;22.35;;;17.77;;
68214;SDS011;55036;52.138;5.236;2023-05-07T07:21:35;20.27;;;17.02;;
68214;SDS011;55036;52.138;5.236;2023-05-07T07:24:02;24.80;;;17.25;;
68214;SDS011;55036;52.138;5.236;2023-05-07T07:26:29;20.38;;;17.85;;
68214;SDS011;55036;52.138;5.236;2023-05-07T07:28:56;20.15;;;17.63;;
68214;SDS011;55036;52.138;5.236;2023-05-07T07:31:23;20.20;;;17.15;;
68214;SDS011;55036;52.138;5.236;2023-05-07T07:33:49;20.42;;;17.42;;
68214;SDS011;55036;52.138;5.236;2023-05-07T07:36:18;22.17;;;17.83;;
68214;SDS011;55036;52.138;5.236;2023-05-07T07:38:45;21.65;;;18.08;;
68214;SDS011;55036;52.138;5.236;2023-05-07T07:41:12;18.65;;;16.48;;
68214;SDS011;55036;52.138;5.236;2023-05-07T07:43:38;18.65;;;16.73;;
68214;SDS011;55036;52.138;5.236;2023-05-07T07:46:05;18.67;;;15.18;;
68214;SDS011;55036;52.138;5.236;2023-05-07T07:48:32;19.30;;;16.48;;
68214;SDS011;55036;52.138;5.236;2023-05-07T07:51:00;18.63;;;15.95;;
68214;SDS011;55036;52.138;5.236;2023-05-07T07:53:30;21.13;;;16.83;;
68214;SDS011;55036;52.138;5.236;2023-05-07T07:55:57;20.17;;;16.80;;
68214;SDS011;55036;52.138;5.236;2023-05-07T07:58:24;18.80;;;15.55;;
68214;SDS011;55036;52.138;5.236;2023-05-07T08:00:51;18.25;;;15.82;;
68214;SDS011;55036;52.138;5.236;2023-05-07T08:03:18;19.27;;;16.63;;
68214;SDS011;55036;52.138;5.236;2023-05-07T08:05:45;18.63;;;16.05;;
68214;SDS011;55036;52.138;5.236;2023-05-07T08:08:12;17.90;;;16.00;;
68214;SDS011;55036;52.138;5.236;2023-05-07T08:10:39;18.58;;;14.82;;
68214;SDS011;55036;52.138;5.236;2023-05-07T08:13:05;16.15;;;14.43;;
68214;SDS011;55036;52.138;5.236;2023-05-07T08:15:32;19.00;;;16.40;;
68214;SDS011;55036;52.138;5.236;2023-05-07T08:18:00;20.58;;;16.02;;
68214;SDS011;55036;52.138;5.236;2023-05-07T08:20:28;20.73;;;16.55;;
68214;SDS011;55036;52.138;5.236;2023-05-07T08:22:55;16.88;;;15.07;;
68214;SDS011;55036;52.138;5.236;2023-05-07T08:25:22;16.95;;;15.02;;
68214;SDS011;55036;52.138;5.236;2023-05-07T08:27:49;20.73;;;17.65;;
68214;SDS011;55036;52.138;5.236;2023-05-07T08:30:16;20.55;;;15.80;;
68214;SDS011;55036;52.138;5.236;2023-05-07T08:32:42;21.42;;;17.75;;
68214;SDS011;55036;52.138;5.236;2023-05-07T08:35:09;22.27;;;18.55;;
68214;SDS011;55036;52.138;5.236;2023-05-07T08:37:36;22.27;;;18.70;;
68214;SDS011;55036;52.138;5.236;2023-05-07T08:40:02;21.75;;;19.05;;
68214;SDS011;55036;52.138;5.236;2023-05-07T08:42:35;19.98;;;17.33;;
68214;SDS011;55036;52.138;5.236;2023-05-07T08:45:03;23.38;;;17.95;;
68214;SDS011;55036;52.138;5.236;2023-05-07T08:50:06;18.65;;;16.55;;
68214;SDS011;55036;52.138;5.236;2023-05-07T08:52:33;20.20;;;17.30;;
68214;SDS011;55036;52.138;5.236;2023-05-07T08:55:01;19.88;;;17.67;;
68214;SDS011;55036;52.138;5.236;2023-05-07T08:57:29;18.52;;;16.23;;
68214;SDS011;55036;52.138;5.236;2023-05-07T08:59:55;16.38;;;14.52;;
68214;SDS011;55036;52.138;5.236;2023-05-07T09:02:22;17.58;;;14.90;;
68214;SDS011;55036;52.138;5.236;2023-05-07T09:04:49;20.27;;;16.45;;
68214;SDS011;55036;52.138;5.236;2023-05-07T09:07:17;16.50;;;14.80;;
68214;SDS011;55036;52.138;5.236;2023-05-07T09:09:43;18.25;;;15.88;;
68214;SDS011;55036;52.138;5.236;2023-05-07T09:12:10;23.05;;;17.35;;
68214;SDS011;55036;52.138;5.236;2023-05-07T09:14:37;17.13;;;15.32;;
68214;SDS011;55036;52.138;5.236;2023-05-07T09:17:05;17.30;;;15.13;;
68214;SDS011;55036;52.138;5.236;2023-05-07T09:19:32;20.35;;;15.85;;
68214;SDS011;55036;52.138;5.236;2023-05-07T09:22:02;20.23;;;16.90;;
68214;SDS011;55036;52.138;5.236;2023-05-07T09:24:30;16.55;;;14.82;;
68214;SDS011;55036;52.138;5.236;2023-05-07T09:27:01;17.67;;;15.80;;
68214;SDS011;55036;52.138;5.236;2023-05-07T09:29:28;20.45;;;15.23;;
68214;SDS011;55036;52.138;5.236;2023-05-07T09:31:56;16.15;;;14.55;;
68214;SDS011;55036;52.138;5.236;2023-05-07T09:34:23;15.52;;;13.43;;
68214;SDS011;55036;52.138;5.236;2023-05-07T09:36:49;15.85;;;13.93;;
68214;SDS011;55036;52.138;5.236;2023-05-07T09:39:16;16.85;;;15.05;;
68214;SDS011;55036;52.138;5.236;2023-05-07T09:41:43;17.10;;;15.05;;
68214;SDS011;55036;52.138;5.236;2023-05-07T09:44:11;17.20;;;15.40;;
68214;SDS011;55036;52.138;5.236;2023-05-07T09:46:41;19.83;;;15.98;;
68214;SDS011;55036;52.138;5.236;2023-05-07T09:49:11;17.65;;;14.70;;
68214;SDS011;55036;52.138;5.236;2023-05-07T09:51:50;17.67;;;15.85;;
68214;SDS011;55036;52.138;5.236;2023-05-07T09:54:18;17.58;;;15.68;;
68214;SDS011;55036;52.138;5.236;2023-05-07T09:56:45;18.23;;;15.88;;
68214;SDS011;55036;52.138;5.236;2023-05-07T09:59:14;17.25;;;15.52;;
68214;SDS011;55036;52.138;5.236;2023-05-07T10:01:42;16.10;;;13.55;;
68214;SDS011;55036;52.138;5.236;2023-05-07T10:04:10;13.65;;;12.25;;
68214;SDS011;55036;52.138;5.236;2023-05-07T10:06:37;13.90;;;11.00;;
68214;SDS011;55036;52.138;5.236;2023-05-07T10:09:04;14.20;;;12.65;;
68214;SDS011;55036;52.138;5.236;2023-05-07T10:11:32;13.23;;;10.15;;
68214;SDS011;55036;52.138;5.236;2023-05-07T10:14:04;10.07;;;7.17;;
68214;SDS011;55036;52.138;5.236;2023-05-07T10:16:34;9.00;;;6.00;;
68214;SDS011;55036;52.138;5.236;2023-05-07T10:19:03;7.80;;;6.20;;
68214;SDS011;55036;52.138;5.236;2023-05-07T10:21:31;14.52;;;6.57;;
68214;SDS011;55036;52.138;5.236;2023-05-07T10:24:13;7.10;;;5.43;;
68214;SDS011;55036;52.138;5.236;2023-05-07T10:26:47;8.10;;;5.72;;
68214;SDS011;55036;52.138;5.236;2023-05-07T10:34:56;8.23;;;5.55;;
68214;SDS011;55036;52.138;5.236;2023-05-07T10:37:28;8.40;;;5.97;;
68214;SDS011;55036;52.138;5.236;2023-05-07T10:39:55;9.10;;;6.60;;
68214;SDS011;55036;52.138;5.236;2023-05-07T10:42:23;7.13;;;6.28;;
68214;SDS011;55036;52.138;5.236;2023-05-07T10:44:50;11.43;;;8.15;;
68214;SDS011;55036;52.138;5.236;2023-05-07T10:47:17;11.52;;;7.63;;
68214;SDS011;55036;52.138;5.236;2023-05-07T10:52:12;11.23;;;8.30;;
68214;SDS011;55036;52.138;5.236;2023-05-07T10:54:41;11.23;;;8.30;;
68214;SDS011;55036;52.138;5.236;2023-05-07T10:59:58;12.68;;;7.47;;
68214;SDS011;55036;52.138;5.236;2023-05-07T11:03:04;10.57;;;8.77;;
68214;SDS011;55036;52.138;5.236;2023-05-07T11:05:41;9.57;;;6.95;;
68214;SDS011;55036;52.138;5.236;2023-05-07T11:08:09;9.95;;;7.22;;
68214;SDS011;55036;52.138;5.236;2023-05-07T11:10:51;10.00;;;7.93;;
68214;SDS011;55036;52.138;5.236;2023-05-07T11:16:17;9.43;;;7.03;;
68214;SDS011;55036;52.138;5.236;2023-05-07T11:21:37;9.18;;;6.88;;
68214;SDS011;55036;52.138;5.236;2023-05-07T11:24:06;9.45;;;7.03;;
68214;SDS011;55036;52.138;5.236;2023-05-07T11:26:41;9.23;;;6.97;;
68214;SDS011;55036;52.138;5.236;2023-05-07T11:29:13;9.60;;;6.85;;
68214;SDS011;55036;52.138;5.236;2023-05-07T11:31:41;10.27;;;7.80;;
68214;SDS011;55036;52.138;5.236;2023-05-07T11:34:08;14.25;;;7.60;;
68214;SDS011;55036;52.138;5.236;2023-05-07T11:36:36;10.88;;;8.48;;
68214;SDS011;55036;52.138;5.236;2023-05-07T11:39:31;9.82;;;7.72;;
68214;SDS011;55036;52.138;5.236;2023-05-07T11:42:02;9.63;;;7.47;;
68214;SDS011;55036;52.138;5.236;2023-05-07T11:44:44;11.07;;;8.35;;
68214;SDS011;55036;52.138;5.236;2023-05-07T11:47:18;11.55;;;8.80;;
68214;SDS011;55036;52.138;5.236;2023-05-07T11:49:47;12.43;;;8.30;;
68214;SDS011;55036;52.138;5.236;2023-05-07T11:52:15;10.85;;;8.95;;
68214;SDS011;55036;52.138;5.236;2023-05-07T11:54:52;10.77;;;8.02;;
68214;SDS011;55036;52.138;5.236;2023-05-07T11:57:24;8.75;;;6.88;;
68214;SDS011;55036;52.138;5.236;2023-05-07T11:59:54;6.95;;;6.18;;
68214;SDS011;55036;52.138;5.236;2023-05-07T12:02:21;12.45;;;8.23;;
68214;SDS011;55036;52.138;5.236;2023-05-07T12:04:48;10.77;;;9.45;;
68214;SDS011;55036;52.138;5.236;2023-05-07T12:07:15;11.45;;;9.07;;
68214;SDS011;55036;52.138;5.236;2023-05-07T12:09:42;13.63;;;9.00;;
68214;SDS011;55036;52.138;5.236;2023-05-07T12:12:09;11.80;;;10.55;;
68214;SDS011;55036;52.138;5.236;2023-05-07T12:14:40;12.85;;;9.52;;
68214;SDS011;55036;52.138;5.236;2023-05-07T12:17:07;14.93;;;9.05;;
68214;SDS011;55036;52.138;5.236;2023-05-07T12:19:36;10.55;;;8.02;;
68214;SDS011;55036;52.138;5.236;2023-05-07T12:22:03;8.80;;;7.72;;
68214;SDS011;55036;52.138;5.236;2023-05-07T12:24:46;15.38;;;9.60;;
68214;SDS011;55036;52.138;5.236;2023-05-07T12:27:23;11.65;;;8.23;;
68214;SDS011;55036;52.138;5.236;2023-05-07T12:29:49;11.40;;;8.68;;
68214;SDS011;55036;52.138;5.236;2023-05-07T12:32:17;9.98;;;8.00;;
68214;SDS011;55036;52.138;5.236;2023-05-07T12:34:45;9.25;;;7.97;;
68214;SDS011;55036;52.138;5.236;2023-05-07T12:37:13;11.32;;;8.05;;
68214;SDS011;55036;52.138;5.236;2023-05-07T12:39:49;9.32;;;7.60;;
68214;SDS011;55036;52.138;5.236;2023-05-07T12:42:32;10.32;;;8.77;;
68214;SDS011;55036;52.138;5.236;2023-05-07T12:45:09;10.68;;;7.97;;
68214;SDS011;55036;52.138;5.236;2023-05-07T12:47:46;12.18;;;7.97;;
68214;SDS011;55036;52.138;5.236;2023-05-07T12:50:13;13.50;;;9.70;;
68214;SDS011;55036;52.138;5.236;2023-05-07T12:52:42;11.30;;;8.15;;
68214;SDS011;55036;52.138;5.236;2023-05-07T12:55:12;13.05;;;9.15;;
68214;SDS011;55036;52.138;5.236;2023-05-07T12:57:47;12.52;;;10.02;;
68214;SDS011;55036;52.138;5.236;2023-05-07T13:00:15;11.63;;;10.38;;
68214;SDS011;55036;52.138;5.236;2023-05-07T13:02:43;12.48;;;9.95;;
68214;SDS011;55036;52.138;5.236;2023-05-07T13:05:11;14.35;;;12.50;;
68214;SDS011;55036;52.138;5.236;2023-05-07T13:07:38;12.32;;;11.02;;
68214;SDS011;55036;52.138;5.236;2023-05-07T13:10:07;12.52;;;11.27;;
68214;SDS011;55036;52.138;5.236;2023-05-07T13:12:34;14.57;;;10.77;;
68214;SDS011;55036;52.138;5.236;2023-05-07T13:15:01;11.48;;;10.48;;
68214;SDS011;55036;52.138;5.236;2023-05-07T13:17:27;14.25;;;10.45;;
68214;SDS011;55036;52.138;5.236;2023-05-07T13:19:54;13.05;;;11.05;;
68214;SDS011;55036;52.138;5.236;2023-05-07T13:22:21;15.40;;;12.57;;
68214;SDS011;55036;52.138;5.236;2023-05-07T13:24:47;14.88;;;13.38;;
68214;SDS011;55036;52.138;5.236;2023-05-07T13:27:14;15.45;;;13.70;;
68214;SDS011;55036;52.138;5.236;2023-05-07T13:29:41;13.02;;;11.70;;
68214;SDS011;55036;52.138;5.236;2023-05-07T13:32:08;14.57;;;13.07;;
68214;SDS011;55036;52.138;5.236;2023-05-07T13:34:34;14.07;;;12.23;;
68214;SDS011;55036;52.138;5.236;2023-05-07T13:37:01;15.02;;;12.85;;
68214;SDS011;55036;52.138;5.236;2023-05-07T13:39:28;13.90;;;12.45;;
68214;SDS011;55036;52.138;5.236;2023-05-07T13:41:54;14.82;;;11.95;;
68214;SDS011;55036;52.138;5.236;2023-05-07T13:44:21;14.27;;;11.43;;
68214;SDS011;55036;52.138;5.236;2023-05-07T13:46:48;15.32;;;12.23;;
68214;SDS011;55036;52.138;5.236;2023-05-07T13:49:14;10.93;;;8.98;;
68214;SDS011;55036;52.138;5.236;2023-05-07T13:51:41;9.20;;;8.13;;
68214;SDS011;55036;52.138;5.236;2023-05-07T13:54:08;8.35;;;6.90;;
68214;SDS011;55036;52.138;5.236;2023-05-07T13:56:34;8.30;;;5.05;;
68214;SDS011;55036;52.138;5.236;2023-05-07T13:59:01;8.13;;;5.00;;
68214;SDS011;55036;52.138;5.236;2023-05-07T14:01:28;7.68;;;4.68;;
68214;SDS011;55036;52.138;5.236;2023-05-07T14:03:55;7.88;;;5.40;;
68214;SDS011;55036;52.138;5.236;2023-05-07T14:06:23;12.90;;;10.45;;
68214;SDS011;55036;52.138;5.236;2023-05-07T14:08:50;10.32;;;5.88;;
68214;SDS011;55036;52.138;5.236;2023-05-07T14:11:17;7.43;;;4.07;;
68214;SDS011;55036;52.138;5.236;2023-05-07T14:13:44;5.35;;;3.78;;
68214;SDS011;55036;52.138;5.236;2023-05-07T14:16:10;5.53;;;4.13;;
68214;SDS011;55036;52.138;5.236;2023-05-07T14:18:37;6.50;;;3.13;;
68214;SDS011;55036;52.138;5.236;2023-05-07T14:21:04;5.18;;;3.28;;
68214;SDS011;55036;52.138;5.236;2023-05-07T14:23:32;6.22;;;3.30;;
68214;SDS011;55036;52.138;5.236;2023-05-07T14:25:59;5.78;;;3.20;;
68214;SDS011;55036;52.138;5.236;2023-05-07T14:28:25;6.00;;;3.30;;
68214;SDS011;55036;52.138;5.236;2023-05-07T14:30:52;6.25;;;3.20;;
68214;SDS011;55036;52.138;5.236;2023-05-07T14:33:19;7.63;;;3.20;;
68214;SDS011;55036;52.138;5.236;2023-05-07T14:35:45;9.63;;;7.60;;
68214;SDS011;55036;52.138;5.236;2023-05-07T14:38:15;11.23;;;8.65;;
68214;SDS011;55036;52.138;5.236;2023-05-07T14:40:41;12.48;;;9.60;;
68214;SDS011;55036;52.138;5.236;2023-05-07T14:43:08;15.13;;;9.45;;
68214;SDS011;55036;52.138;5.236;2023-05-07T14:45:35;10.90;;;9.77;;
68214;SDS011;55036;52.138;5.236;2023-05-07T14:48:02;9.65;;;8.30;;
68214;SDS011;55036;52.138;5.236;2023-05-07T14:50:29;12.30;;;8.23;;
68214;SDS011;55036;52.138;5.236;2023-05-07T14:52:55;10.15;;;7.80;;
68214;SDS011;55036;52.138;5.236;2023-05-07T14:55:22;11.43;;;8.07;;
68214;SDS011;55036;52.138;5.236;2023-05-07T14:57:49;9.13;;;8.05;;
68214;SDS011;55036;52.138;5.236;2023-05-07T15:00:16;10.82;;;8.10;;
68214;SDS011;55036;52.138;5.236;2023-05-07T15:02:45;9.25;;;6.82;;
68214;SDS011;55036;52.138;5.236;2023-05-07T15:05:12;9.15;;;6.35;;
68214;SDS011;55036;52.138;5.236;2023-05-07T15:07:40;9.77;;;6.80;;
68214;SDS011;55036;52.138;5.236;2023-05-07T15:10:07;11.57;;;7.25;;
68214;SDS011;55036;52.138;5.236;2023-05-07T15:12:34;9.65;;;5.47;;
68214;SDS011;55036;52.138;5.236;2023-05-07T15:15:01;7.18;;;5.13;;
68214;SDS011;55036;52.138;5.236;2023-05-07T15:17:28;8.63;;;5.57;;
68214;SDS011;55036;52.138;5.236;2023-05-07T15:19:55;8.10;;;4.80;;
68214;SDS011;55036;52.138;5.236;2023-05-07T15:22:21;6.13;;;4.15;;